createdAt,value
2023-01-08T00:03:48.167Z,11.20
2023-01-08T00:08:50.049Z,12.23
2023-01-08T00:13:51.738Z,11.27
2023-01-08T00:18:53.472Z,11.00
2023-01-08T00:23:55.456Z,10.93
2023-01-08T00:28:57.325Z,11.53
2023-01-08T00:33:58.993Z,10.83
2023-01-08T00:39:01.083Z,10.07
2023-01-08T00:44:02.762Z,10.73
2023-01-08T00:49:04.638Z,10.30
2023-01-08T00:54:06.448Z,9.83
2023-01-08T00:59:08.206Z,10.90
2023-01-08T01:04:10.023Z,9.50
2023-01-08T01:09:12.268Z,10.73
2023-01-08T01:14:13.991Z,10.33
2023-01-08T01:19:17.090Z,9.93
2023-01-08T01:24:18.802Z,9.40
2023-01-08T01:29:20.488Z,9.98
2023-01-08T01:34:22.121Z,9.52
2023-01-08T01:39:23.945Z,10.50
2023-01-08T01:44:45.451Z,10.50
2023-01-08T01:49:55.845Z,9.85
2023-01-08T01:54:59.744Z,10.18
2023-01-08T02:00:04.896Z,10.15
2023-01-08T02:05:15.057Z,9.75
2023-01-08T02:10:38.689Z,8.60
2023-01-08T02:15:53.090Z,9.45
2023-01-08T02:21:01.549Z,10.13
2023-01-08T02:26:32.792Z,8.80
2023-01-08T02:31:38.545Z,9.25
2023-01-08T02:36:43.635Z,9.13
2023-01-08T02:42:07.250Z,8.90
2023-01-08T02:47:18.524Z,8.75
2023-01-08T02:52:23.415Z,9.00
2023-01-08T02:57:26.162Z,8.85
2023-01-08T03:02:32.989Z,9.10
2023-01-08T03:07:35.670Z,8.40
2023-01-08T03:13:01.722Z,9.52
2023-01-08T03:18:13.620Z,8.35
2023-01-08T03:23:17.760Z,8.73
2023-01-08T03:28:25.305Z,8.63
2023-01-08T03:33:30.333Z,9.18
2023-01-08T03:38:36.639Z,8.85
2023-01-08T03:43:38.674Z,8.80
2023-01-08T03:48:41.195Z,9.05
2023-01-08T03:58:44.843Z,8.32
2023-01-08T04:03:46.488Z,8.10
2023-01-08T04:08:48.926Z,8.55
2023-01-08T04:13:50.571Z,7.07
2023-01-08T04:18:52.291Z,7.57
2023-01-08T04:23:55.111Z,8.23
2023-01-08T04:28:56.817Z,7.88
2023-01-08T04:33:58.550Z,8.48
2023-01-08T04:39:00.287Z,9.18
2023-01-08T04:44:02.323Z,8.95
2023-01-08T04:49:03.979Z,8.35
2023-01-08T04:54:06.196Z,8.80
2023-01-08T04:59:08.038Z,8.45
2023-01-08T05:04:10.904Z,8.10
2023-01-08T05:14:14.719Z,7.82
2023-01-08T05:19:16.590Z,8.00
2023-01-08T05:24:18.263Z,7.23
2023-01-08T05:29:20.323Z,6.97
2023-01-08T05:34:21.946Z,7.23
2023-01-08T05:39:23.649Z,6.72
2023-01-08T05:44:25.391Z,7.32
2023-01-08T05:49:27.252Z,7.50
2023-01-08T05:54:28.912Z,8.33
2023-01-08T05:59:30.799Z,7.33
2023-01-08T06:04:32.430Z,7.78
2023-01-08T06:09:34.123Z,7.32
2023-01-08T06:14:35.825Z,6.57
2023-01-08T06:19:39.269Z,7.57
2023-01-08T06:24:40.993Z,7.40
2023-01-08T06:29:42.666Z,6.82
2023-01-08T06:34:44.344Z,6.97
2023-01-08T06:39:46.092Z,7.20
2023-01-08T06:44:47.782Z,6.72
2023-01-08T06:49:49.418Z,6.95
2023-01-08T06:54:51.211Z,6.93
2023-01-08T06:59:52.889Z,8.13
2023-01-08T07:04:54.733Z,7.57
2023-01-08T07:09:56.789Z,6.28
2023-01-08T07:14:58.464Z,6.68
2023-01-08T07:20:00.154Z,6.13
2023-01-08T07:25:02.030Z,5.60
2023-01-08T07:30:04.227Z,6.90
2023-01-08T07:35:06.124Z,6.95
2023-01-08T07:40:09.850Z,6.93
2023-01-08T07:45:11.719Z,6.43
2023-01-08T07:50:13.413Z,6.30
2023-01-08T07:55:15.325Z,7.30
2023-01-08T08:00:18.100Z,7.50
2023-01-08T08:05:19.860Z,7.03
2023-01-08T08:10:21.597Z,8.37
2023-01-08T08:15:23.213Z,7.07
2023-01-08T08:20:25.658Z,7.68
2023-01-08T08:25:27.362Z,8.98
2023-01-08T08:30:31.227Z,7.87
2023-01-08T08:35:34.439Z,8.02
2023-01-08T08:40:36.088Z,9.35
2023-01-08T08:45:37.807Z,8.60
2023-01-08T08:50:39.651Z,7.82
2023-01-08T08:55:41.262Z,8.48
2023-01-08T09:00:43.643Z,9.27
2023-01-08T09:05:45.612Z,8.43
2023-01-08T09:10:47.482Z,8.93
2023-01-08T09:15:49.264Z,8.87
2023-01-08T09:20:51.053Z,8.00
2023-01-08T09:25:59.507Z,7.93
2023-01-08T09:31:03.667Z,8.73
2023-01-08T09:36:10.672Z,9.35
2023-01-08T09:41:25.145Z,8.32
2023-01-08T09:46:28.593Z,8.57
2023-01-08T09:51:34.954Z,8.27
2023-01-08T09:56:37.767Z,7.85
2023-01-08T10:01:41.191Z,7.70
2023-01-08T10:07:13.274Z,8.05
2023-01-08T10:12:16.261Z,7.82
2023-01-08T10:17:34.723Z,8.73
2023-01-08T10:22:36.518Z,7.70
2023-01-08T10:27:46.147Z,7.88
2023-01-08T10:32:54.440Z,7.50
2023-01-08T10:37:56.588Z,7.22
2023-01-08T10:43:07.268Z,7.32
2023-01-08T10:48:17.586Z,8.30
2023-01-08T10:53:28.879Z,8.13
2023-01-08T10:58:42.167Z,7.22
2023-01-08T11:03:48.866Z,7.07
2023-01-08T11:08:53.026Z,7.28
2023-01-08T11:13:57.616Z,6.55
2023-01-08T11:18:59.536Z,7.57
2023-01-08T11:24:14.968Z,7.77
2023-01-08T11:29:24.513Z,7.65
2023-01-08T11:34:34.694Z,7.78
2023-01-08T11:39:38.501Z,8.43
2023-01-08T11:45:07.929Z,9.70
2023-01-08T11:50:44.328Z,7.38
2023-01-08T11:55:54.701Z,8.20
2023-01-08T12:01:15.862Z,8.10
2023-01-08T12:06:44.605Z,8.90
2023-01-08T12:12:16.122Z,16.63
2023-01-08T12:17:55.578Z,9.32
2023-01-08T12:23:06.146Z,7.63
2023-01-08T12:28:26.518Z,7.90
2023-01-08T12:33:38.860Z,7.32
2023-01-08T12:38:44.627Z,12.55
2023-01-08T12:43:52.501Z,9.85
2023-01-08T12:48:56.357Z,10.07
2023-01-08T12:54:22.915Z,9.70
2023-01-08T13:00:03.561Z,8.88
2023-01-08T13:05:13.116Z,8.73
2023-01-08T13:10:40.801Z,8.60
2023-01-08T13:15:42.591Z,8.82
2023-01-08T13:20:56.874Z,10.95
2023-01-08T13:26:01.056Z,9.30
2023-01-08T13:31:24.468Z,9.00
2023-01-08T13:36:31.964Z,9.38
2023-01-08T13:41:37.321Z,8.90
2023-01-08T13:46:40.923Z,7.00
2023-01-08T13:51:45.400Z,7.47
2023-01-08T13:56:53.955Z,8.80
2023-01-08T14:01:57.141Z,10.13
2023-01-08T14:07:14.748Z,9.93
2023-01-08T14:12:25.004Z,8.35
2023-01-08T14:17:32.333Z,8.48
2023-01-08T14:22:35.965Z,9.82
2023-01-08T14:32:43.475Z,11.18
2023-01-08T14:37:45.164Z,13.45
2023-01-08T14:42:50.046Z,9.73
2023-01-08T14:48:21.114Z,14.20
2023-01-08T14:53:36.342Z,9.23
2023-01-08T14:58:40.599Z,8.77
2023-01-08T15:03:44.723Z,8.77
2023-01-08T15:08:46.387Z,9.02
2023-01-08T15:13:49.970Z,8.88
2023-01-08T15:19:02.807Z,8.98
2023-01-08T15:24:06.961Z,9.50
2023-01-08T15:29:19.089Z,11.18
2023-01-08T15:34:21.379Z,12.57
2023-01-08T15:39:23.012Z,13.93
2023-01-08T15:44:25.506Z,9.30
2023-01-08T15:49:27.133Z,10.68
2023-01-08T15:54:28.955Z,10.68
2023-01-08T15:59:31.531Z,10.35
2023-01-08T16:04:33.239Z,13.32
2023-01-08T16:09:34.929Z,16.55
2023-01-08T16:14:38.071Z,15.65
2023-01-08T16:19:39.721Z,17.38
2023-01-08T16:24:41.770Z,14.00
2023-01-08T16:29:43.489Z,14.57
2023-01-08T16:34:45.187Z,13.70
2023-01-08T16:39:46.914Z,12.95
2023-01-08T16:44:48.701Z,14.30
2023-01-08T16:49:51.037Z,12.88
2023-01-08T16:54:52.696Z,11.88
2023-01-08T16:59:54.366Z,13.95
2023-01-08T17:04:56.126Z,11.35
2023-01-08T17:09:57.951Z,10.68
2023-01-08T17:14:59.629Z,17.88
2023-01-08T17:20:01.447Z,14.60
2023-01-08T17:25:03.464Z,10.18
2023-01-08T17:30:05.835Z,11.97
2023-01-08T17:35:08.037Z,9.68
2023-01-08T17:40:10.340Z,10.13
2023-01-08T17:45:12.233Z,10.48
2023-01-08T17:50:14.086Z,9.50
2023-01-08T17:55:15.909Z,9.27
2023-01-08T18:00:18.933Z,13.02
2023-01-08T18:05:20.882Z,15.15
2023-01-08T18:10:22.650Z,12.40
2023-01-08T18:15:24.338Z,10.80
2023-01-08T18:20:26.160Z,10.70
2023-01-08T18:25:27.819Z,11.00
2023-01-08T18:30:30.712Z,11.88
2023-01-08T18:35:33.159Z,11.05
2023-01-08T18:40:34.950Z,12.02
2023-01-08T18:45:38.622Z,12.00
2023-01-08T18:50:41.104Z,12.18
2023-01-08T18:55:42.759Z,12.32
2023-01-08T19:00:44.510Z,11.82
2023-01-08T19:05:46.137Z,11.95
2023-01-08T19:20:53.812Z,11.55
2023-01-08T19:25:55.503Z,11.20
2023-01-08T19:30:58.892Z,11.60
2023-01-08T19:36:03.134Z,11.70
2023-01-08T19:41:05.427Z,11.80
2023-01-08T19:46:07.286Z,11.93
2023-01-08T19:51:10.352Z,10.50
2023-01-08T19:56:13.950Z,11.10
2023-01-08T20:01:18.607Z,12.48
2023-01-08T20:06:23.493Z,11.63
2023-01-08T20:11:25.843Z,11.98
2023-01-08T20:16:29.478Z,12.07
2023-01-08T20:21:32.850Z,12.35
2023-01-08T20:26:36.014Z,10.82
2023-01-08T20:31:39.638Z,10.75
2023-01-08T20:36:43.951Z,10.25
2023-01-08T20:41:55.312Z,9.90
2023-01-08T20:47:05.330Z,9.90
2023-01-08T20:52:07.122Z,10.40
2023-01-08T20:57:09.406Z,9.65
2023-01-08T21:02:11.608Z,9.35
2023-01-08T21:07:13.318Z,10.43
2023-01-08T21:12:15.796Z,11.95
2023-01-08T21:17:17.500Z,11.05
2023-01-08T21:22:19.182Z,10.18
2023-01-08T21:27:20.940Z,9.88
2023-01-08T21:32:22.660Z,9.25
2023-01-08T21:37:24.386Z,9.38
2023-01-08T21:42:44.481Z,9.60
2023-01-08T21:47:46.094Z,10.32
2023-01-08T21:53:06.088Z,10.63
2023-01-08T21:58:08.443Z,14.60
2023-01-08T22:03:10.516Z,12.82
2023-01-08T22:08:18.375Z,12.85
2023-01-08T22:13:20.053Z,12.00
2023-01-08T22:18:21.916Z,14.63
2023-01-08T22:23:23.525Z,12.43
2023-01-08T22:28:26.116Z,14.43
2023-01-08T22:33:27.852Z,16.83
2023-01-08T22:38:29.509Z,16.70
2023-01-08T22:43:31.129Z,18.20
2023-01-08T22:48:32.788Z,17.52
2023-01-08T22:53:35.191Z,17.33
2023-01-08T22:58:37.456Z,17.83
2023-01-08T23:03:45.396Z,17.47
2023-01-08T23:08:47.262Z,15.95
2023-01-08T23:13:51.025Z,17.93
2023-01-08T23:18:54.032Z,15.38
2023-01-08T23:23:56.370Z,16.08
2023-01-08T23:28:59.108Z,17.95
2023-01-08T23:39:02.595Z,20.67
2023-01-08T23:44:07.795Z,19.13
2023-01-08T23:49:10.159Z,20.23
2023-01-08T23:54:12.397Z,22.38
2023-01-08T23:59:14.537Z,23.85
